Calmer, Arkansas
Current Conditions -  °F | °C
As of 9:53 AM on Tuesday 21 Oct 2014 (Local Time) from KPBF Reporting Station
Clear Clear  
Wind Chill: 65°   Ceiling: Unl
Heat Index: 65°   Visibility: 10mi
Dew Point: 58°   Wind: 6mph
Humidity: 78%   Direction: 360°N
Pressure: 30.13"   Gusts: NA
Location:  33.947°N, 92.1633°W
Report Text: KPBF 211453Z AUTO 36005KT 10SM CLR 18/14 A3013 RMK AO2 SLP200 T01830144 51018
Loading
Personal Weather Stations






























Interactive Weather Map
Tropical Storm Tracking
New forecast layout! Learn more

10-Day Weather Forecast

Advertisements
Track Severe Weather on mobile